Time;durP1;ratioP1;P1;durP2;ratioP2;P2;SDS_P1;SDS_P2;PMS_P1;PMS_P2;Temp;Humidity;BMP_temperature;BMP_pressure;BME280_temperature;BME280_humidity;BME280_pressure;Samples;Min_cycle;Max_cycle;Signal;HPM_P1;HPM_P2
2022/02/28 00:02:08;;;;;;;21.80;8.30;;;;;;;-1.57;85.00;102608.95;3467787;83;99287;-96
2022/02/28 00:07:09;;;;;;;27.00;10.20;;;;;;;-1.59;84.89;102607.02;3534514;82;99212;-96
2022/02/28 00:12:10;;;;;;;22.60;9.10;;;;;;;-1.62;85.35;102612.91;3545143;82;99494;-96
2022/02/28 00:17:11;;;;;;;28.50;9.93;;;;;;;-1.64;85.31;102611.52;3552043;82;32877;-96
2022/02/28 00:22:12;;;;;;;20.97;9.17;;;;;;;-1.67;85.58;102609.30;3544326;82;98458;-96
2022/02/28 00:27:14;;;;;;;24.07;9.95;;;;;;;-1.71;85.64;102618.41;3545065;81;99527;-96
2022/02/28 00:32:15;;;;;;;28.83;10.13;;;;;;;-1.74;85.89;102617.56;3544335;82;98728;-96
2022/02/28 00:37:16;;;;;;;25.53;11.50;;;;;;;-1.73;86.11;102625.11;3542152;82;99854;-96
2022/02/28 00:42:17;;;;;;;33.77;12.17;;;;;;;-1.74;86.13;102621.61;3506853;82;99321;-96
2022/02/28 00:47:18;;;;;;;28.87;10.90;;;;;;;-1.69;86.42;102615.48;3529067;82;33060;-96
2022/02/28 00:52:19;;;;;;;28.27;10.53;;;;;;;-1.66;86.53;102609.58;3509462;82;98854;-96
2022/02/28 00:57:20;;;;;;;27.93;10.13;;;;;;;-1.57;86.59;102601.38;3526064;82;99128;-96
2022/02/28 01:02:21;;;;;;;31.03;10.57;;;;;;;-1.47;87.12;102605.09;3507599;83;98839;-96
2022/02/28 01:07:22;;;;;;;32.63;12.10;;;;;;;-1.35;86.87;102595.53;3512809;83;99548;-96
2022/02/28 01:12:22;;;;;;;25.77;9.43;;;;;;;-1.25;86.82;102599.76;3508380;82;99565;-96
2022/02/28 01:17:24;;;;;;;31.07;9.93;;;;;;;-1.16;86.77;102595.03;3514325;83;25959;-95
2022/02/28 01:22:25;;;;;;;24.30;9.13;;;;;;;-1.08;86.90;102591.11;3511772;82;99301;-95
2022/02/28 01:27:27;;;;;;;25.67;10.03;;;;;;;-1.01;86.72;102593.92;3514222;83;99399;-93
2022/02/28 01:32:28;;;;;;;23.30;9.20;;;;;;;-0.93;86.47;102589.44;3508824;82;99346;-94
2022/02/28 01:37:29;;;;;;;24.02;8.63;;;;;;;-0.86;86.48;102582.52;3514735;81;99050;-95
2022/02/28 01:42:29;;;;;;;22.13;8.43;;;;;;;-0.82;86.39;102574.99;3524135;82;99471;-96
2022/02/28 01:47:30;;;;;;;25.30;9.00;;;;;;;-0.77;86.13;102564.25;3498596;81;25769;-94
2022/02/28 01:52:31;;;;;;;23.23;7.83;;;;;;;-0.72;86.10;102560.81;3505183;81;98710;-95
2022/02/28 01:57:32;;;;;;;21.70;8.53;;;;;;;-0.67;86.10;102566.30;3522833;81;99057;-93
2022/02/28 02:02:33;;;;;;;20.20;8.80;;;;;;;-0.62;86.06;102569.06;3520607;80;98796;-95
2022/02/28 02:07:35;;;;;;;35.33;16.23;;;;;;;-0.57;86.25;102563.17;3517995;81;98873;-95
2022/02/28 02:12:38;;;;;;;90.47;31.73;;;;;;;-0.57;86.34;102568.58;3522193;81;99323;-94
2022/02/28 02:17:40;;;;;;;71.87;26.43;;;;;;;-0.54;86.24;102559.98;3528197;80;25989;-94
2022/02/28 02:22:56;;;;;;;52.20;22.03;;;;;;;-0.48;85.78;102548.67;3522935;81;99480;-95
2022/02/28 02:27:57;;;;;;;28.70;13.20;;;;;;;-0.45;85.81;102550.89;3524576;81;98673;-95
2022/02/28 02:32:58;;;;;;;24.40;11.10;;;;;;;-0.42;85.40;102535.77;3518316;81;98721;-93
2022/02/28 02:37:59;;;;;;;22.07;7.90;;;;;;;-0.38;85.35;102525.80;3514119;81;99380;-94
2022/02/28 02:43:00;;;;;;;21.83;7.70;;;;;;;-0.36;85.72;102546.92;3523240;81;98932;-94
2022/02/28 02:48:14;;;;;;;24.40;8.83;;;;;;;-0.35;85.79;102538.28;3541873;82;26612;-93
2022/02/28 02:53:15;;;;;;;19.03;7.43;;;;;;;-0.34;85.81;102541.27;3542038;82;98598;-94
2022/02/28 02:58:16;;;;;;;21.30;8.13;;;;;;;-0.32;86.00;102542.37;3539545;82;99080;-93
2022/02/28 03:03:21;;;;;;;23.23;8.63;;;;;;;-0.33;86.31;102544.25;3557291;80;98846;-93
2022/02/28 03:08:22;;;;;;;25.63;8.90;;;;;;;-0.32;86.55;102538.31;3548605;80;99679;-93
2022/02/28 03:13:22;;;;;;;19.90;8.20;;;;;;;-0.30;86.38;102535.64;3533048;82;99206;-93
2022/02/28 03:18:23;;;;;;;20.90;8.83;;;;;;;-0.32;86.56;102533.73;3555572;82;99349;-94
2022/02/28 03:23:25;;;;;;;21.13;8.97;;;;;;;-0.33;86.50;102524.52;3540555;82;98424;-94
2022/02/28 03:28:26;;;;;;;25.17;11.10;;;;;;;-0.34;86.73;102522.33;3538485;82;99047;-94
2022/02/28 03:33:27;;;;;;;29.77;12.83;;;;;;;-0.34;86.84;102531.00;3539786;82;99354;-94
2022/02/28 03:38:27;;;;;;;28.43;12.17;;;;;;;-0.36;86.94;102533.95;3544585;82;99026;-93
2022/02/28 03:43:28;;;;;;;23.07;10.17;;;;;;;-0.37;87.04;102530.41;3499912;82;98969;-93
2022/02/28 03:48:29;;;;;;;21.97;9.47;;;;;;;-0.37;87.30;102540.44;3520983;81;99368;-94
2022/02/28 03:53:33;;;;;;;24.07;9.87;;;;;;;-0.40;87.42;102559.06;3503477;82;98825;-93
2022/02/28 03:58:38;;;;;;;23.03;9.23;;;;;;;-0.42;87.47;102551.99;3515189;83;98676;-92
2022/02/28 04:03:39;;;;;;;26.53;10.00;;;;;;;-0.41;87.56;102551.47;3509865;82;98851;-93
2022/02/28 04:08:40;;;;;;;27.77;10.43;;;;;;;-0.41;87.51;102548.77;3509962;82;99590;-94
2022/02/28 04:13:41;;;;;;;19.77;8.37;;;;;;;-0.42;87.62;102546.31;3510908;82;99006;-94
2022/02/28 04:18:42;;;;;;;25.47;10.97;;;;;;;-0.42;87.75;102551.72;3516259;82;98902;-91
2022/02/28 04:23:43;;;;;;;20.53;9.47;;;;;;;-0.45;88.09;102548.19;3509669;82;98658;-92
2022/02/28 04:28:43;;;;;;;24.13;9.87;;;;;;;-0.45;88.42;102540.87;3519869;83;98771;-93
2022/02/28 04:33:44;;;;;;;27.50;9.00;;;;;;;-0.47;88.44;102539.48;3504517;82;98473;-93
2022/02/28 04:38:45;;;;;;;22.27;8.77;;;;;;;-0.49;88.64;102539.76;3507569;83;98952;-93
2022/02/28 04:43:46;;;;;;;23.73;9.00;;;;;;;-0.50;88.89;102550.27;3543841;80;98928;-91
2022/02/28 04:48:47;;;;;;;21.77;9.10;;;;;;;-0.52;88.63;102542.95;3559562;81;98878;-93
2022/02/28 04:53:47;;;;;;;23.40;9.77;;;;;;;-0.55;88.90;102543.44;3556242;81;98321;-91
2022/02/28 04:58:48;;;;;;;22.07;8.47;;;;;;;-0.53;88.57;102545.91;3557602;81;98650;-93
2022/02/28 05:03:49;;;;;;;22.93;9.13;;;;;;;-0.52;88.47;102532.14;3555762;80;98695;-93
2022/02/28 05:08:50;;;;;;;23.60;8.87;;;;;;;-0.54;88.28;102535.64;3560184;80;98797;-92
2022/02/28 05:13:51;;;;;;;22.30;9.37;;;;;;;-0.54;88.45;102537.52;3562340;80;98915;-92
2022/02/28 05:18:51;;;;;;;24.47;9.17;;;;;;;-0.55;88.45;102534.53;3557373;80;99164;-92
2022/02/28 05:23:52;;;;;;;22.30;9.40;;;;;;;-0.55;88.38;102539.39;3556419;81;98992;-94
2022/02/28 05:28:53;;;;;;;24.25;8.48;;;;;;;-0.56;88.62;102543.17;3556919;81;98752;-92
2022/02/28 05:33:54;;;;;;;23.60;8.67;;;;;;;-0.59;88.44;102549.09;3550719;80;98753;-92
2022/02/28 05:38:55;;;;;;;29.47;10.97;;;;;;;-0.61;88.47;102553.92;3562925;80;98721;-92
2022/02/28 05:43:56;;;;;;;30.50;10.83;;;;;;;-0.64;88.50;102549.03;3512878;79;99009;-92
2022/02/28 05:48:57;;;;;;;32.13;11.20;;;;;;;-0.68;88.26;102549.23;3498603;83;99068;-92
2022/02/28 05:53:58;;;;;;;23.97;9.10;;;;;;;-0.72;88.12;102556.77;3493643;82;98596;-93
2022/02/28 05:58:59;;;;;;;34.87;11.17;;;;;;;-0.79;88.28;102560.99;3492884;83;99094;-94
2022/02/28 06:04:00;;;;;;;31.23;11.13;;;;;;;-0.88;88.27;102562.48;3489619;82;98621;-92
2022/02/28 06:09:03;;;;;;;35.70;13.90;;;;;;;-0.98;88.55;102562.88;3491854;83;99267;-93
2022/02/28 06:14:03;;;;;;;28.62;11.70;;;;;;;-1.05;88.60;102568.45;3486057;83;99293;-94
2022/02/28 06:19:04;;;;;;;27.30;10.07;;;;;;;-1.14;88.92;102567.78;3491638;83;99197;-94
2022/02/28 06:24:06;;;;;;;22.97;10.13;;;;;;;-1.19;89.51;102581.20;3482325;82;98838;-91
2022/02/28 06:29:07;;;;;;;31.33;12.43;;;;;;;-1.22;89.78;102581.17;3494224;83;99138;-92
2022/02/28 06:34:07;;;;;;;27.43;11.60;;;;;;;-1.22;90.34;102584.42;3492582;82;99449;-90
2022/02/28 06:39:10;;;;;;;23.70;11.90;;;;;;;-1.23;90.72;102595.75;3500307;83;99289;-91
2022/02/28 06:44:11;;;;;;;25.40;10.70;;;;;;;-1.23;90.97;102597.09;3517088;82;99154;-91
2022/02/28 06:49:12;;;;;;;28.93;14.87;;;;;;;-1.21;91.35;102601.70;3555824;80;99420;-92
2022/02/28 06:54:13;;;;;;;25.50;11.97;;;;;;;-1.17;91.44;102597.98;3551181;82;99895;-91
2022/02/28 06:59:14;;;;;;;29.53;10.57;;;;;;;-1.12;91.97;102612.40;3547418;82;98868;-91
2022/02/28 07:04:14;;;;;;;25.10;11.33;;;;;;;-1.07;92.16;102612.48;3536291;82;99103;-91
2022/02/28 07:09:15;;;;;;;25.50;9.87;;;;;;;-1.01;92.25;102619.59;3559244;82;99278;-90
2022/02/28 07:14:16;;;;;;;25.53;9.60;;;;;;;-0.93;92.00;102629.98;3563709;81;99107;-89
2022/02/28 07:19:17;;;;;;;23.00;8.83;;;;;;;-0.84;91.97;102637.96;3563738;80;99388;-88
2022/02/28 07:24:18;;;;;;;25.17;9.37;;;;;;;-0.76;91.57;102620.51;3536108;82;98689;-89
2022/02/28 07:29:19;;;;;;;19.87;9.63;;;;;;;-0.66;90.93;102628.77;3548484;82;98597;-90
2022/02/28 07:34:20;;;;;;;35.33;12.53;;;;;;;-0.56;90.43;102632.41;3534276;82;98595;-88
2022/02/28 07:39:21;;;;;;;29.43;11.97;;;;;;;-0.44;90.19;102625.00;3556937;82;99059;-88
2022/02/28 07:44:22;;;;;;;23.27;8.97;;;;;;;-0.33;89.26;102631.38;3545090;82;99268;-90
2022/02/28 07:49:23;;;;;;;23.77;10.43;;;;;;;-0.22;88.39;102634.49;3545429;80;98930;-89
2022/02/28 07:54:24;;;;;;;24.37;9.30;;;;;;;-0.13;88.33;102634.34;3531898;82;99386;-88
2022/02/28 07:59:25;;;;;;;19.47;7.47;;;;;;;-0.05;87.62;102640.92;3556704;80;26425;-89
2022/02/28 08:04:26;;;;;;;17.33;8.13;;;;;;;0.04;87.35;102639.94;3537332;81;98669;-89
2022/02/28 08:09:27;;;;;;;18.27;8.57;;;;;;;0.15;86.83;102653.87;3550578;82;99053;-88
2022/02/28 08:14:27;;;;;;;23.10;8.73;;;;;;;0.28;86.38;102651.59;3547570;80;98794;-88
2022/02/28 08:19:28;;;;;;;21.30;8.17;;;;;;;0.42;85.29;102656.06;3549273;80;98831;-89
2022/02/28 08:24:29;;;;;;;18.50;7.43;;;;;;;0.59;84.68;102663.55;3545790;81;98962;-89
2022/02/28 08:29:30;;;;;;;18.07;6.70;;;;;;;0.70;84.27;102655.27;3539949;82;34115;-89
2022/02/28 08:34:31;;;;;;;25.47;9.57;;;;;;;0.87;82.47;102651.88;3532292;82;98552;-88
2022/02/28 08:39:32;;;;;;;17.93;6.27;;;;;;;1.01;83.39;102652.27;3546072;81;98598;-88
2022/02/28 08:44:34;;;;;;;18.27;7.57;;;;;;;1.22;82.58;102656.77;3515364;82;98932;-88
2022/02/28 08:49:35;;;;;;;15.53;6.47;;;;;;;1.49;82.92;102659.64;3486051;83;98963;-90
2022/02/28 08:54:36;;;;;;;17.83;6.90;;;;;;;1.84;82.28;102662.55;3481523;83;99007;-88
2022/02/28 08:59:37;;;;;;;13.93;4.60;;;;;;;2.21;81.85;102673.28;3505087;82;31889;-90
2022/02/28 09:04:38;;;;;;;14.70;6.23;;;;;;;2.48;77.13;102669.29;3483540;83;98585;-88
2022/02/28 09:09:39;;;;;;;12.07;4.97;;;;;;;2.81;72.75;102678.30;3496401;82;98973;-87
2022/02/28 09:14:41;;;;;;;9.67;3.93;;;;;;;2.97;74.32;102666.34;3503212;83;99040;-89
2022/02/28 09:19:42;;;;;;;12.60;4.40;;;;;;;3.35;72.13;102670.39;3479367;83;98705;-92
2022/02/28 09:24:43;;;;;;;12.60;4.60;;;;;;;4.20;74.37;102663.31;3504250;83;98907;-91
2022/02/28 09:29:46;;;;;;;10.93;4.40;;;;;;;4.82;70.48;102658.82;3502196;83;98441;-90
2022/02/28 09:34:46;;;;;;;14.20;4.42;;;;;;;5.57;72.86;102670.39;3519048;83;98450;-90
2022/02/28 09:39:47;;;;;;;19.02;5.42;;;;;;;5.66;66.65;102677.41;3513898;82;99191;-91
2022/02/28 09:44:48;;;;;;;16.07;5.63;;;;;;;5.90;66.39;102675.54;3485455;83;99169;-90
2022/02/28 09:49:49;;;;;;;10.37;4.53;;;;;;;6.42;64.83;102675.39;3507918;82;98987;-90
2022/02/28 09:54:51;;;;;;;12.60;5.33;;;;;;;6.38;62.77;102676.54;3517185;82;99079;-91
2022/02/28 09:59:52;;;;;;;14.20;5.73;;;;;;;6.66;63.85;102672.05;3492110;83;98687;-90
2022/02/28 10:04:53;;;;;;;13.07;5.87;;;;;;;7.42;64.38;102658.73;3524089;82;98740;-90
2022/02/28 10:10:12;;;;;;;16.43;6.10;;;;;;;7.97;59.97;102665.29;3502425;82;99178;-91
2022/02/28 10:15:17;;;;;;;12.80;5.95;;;;;;;8.10;60.17;102662.30;3519661;82;99244;-92
2022/02/28 10:20:37;;;;;;;11.35;5.70;;;;;;;8.53;57.45;102665.77;3526862;80;99018;-91
2022/02/28 10:25:51;;;;;;;13.13;6.65;;;;;;;7.97;54.95;102665.29;3531559;82;99058;-90
2022/02/28 10:31:00;;;;;;;25.57;6.87;;;;;;;8.35;58.79;102665.33;3505834;82;98658;-92
2022/02/28 10:36:15;;;;;;;14.60;6.83;;;;;;;8.92;55.69;102654.95;3522987;81;33254;-91
2022/02/28 10:41:25;;;;;;;14.80;7.05;;;;;;;8.47;55.11;102656.58;3518907;83;98852;-92
2022/02/28 10:46:30;;;;;;;15.13;6.35;;;;;;;8.57;55.69;102659.09;3527466;82;99044;-90
2022/02/28 10:51:45;;;;;;;14.95;7.10;;;;;;;9.05;53.59;102656.02;3527498;82;99003;-91
2022/02/28 10:57:15;;;;;;;14.63;6.60;;;;;;;9.19;55.77;102661.68;3535343;81;99066;-90
2022/02/28 11:02:32;;;;;;;13.38;7.42;;;;;;;9.16;53.29;102665.62;3502429;81;99332;-90
2022/02/28 11:07:49;;;;;;;11.30;5.67;;;;;;;8.55;53.41;102670.37;3532581;82;99007;-89
2022/02/28 11:12:50;;;;;;;15.48;6.85;;;;;;;8.88;52.10;102669.04;3511235;82;98851;-93
2022/02/28 11:17:52;;;;;;;13.60;6.20;;;;;;;8.28;52.23;102643.00;3522463;81;25927;-93
2022/02/28 11:22:53;;;;;;;14.85;5.62;;;;;;;8.15;50.34;102668.50;3514267;83;98869;-91
2022/02/28 11:27:55;;;;;;;16.77;6.93;;;;;;;8.00;50.22;102673.47;3529143;82;99169;-92
2022/02/28 11:33:10;;;;;;;13.03;5.33;;;;;;;7.94;50.87;102665.92;3508400;82;99358;-92
2022/02/28 11:38:19;;;;;;;11.50;4.30;;;;;;;7.83;51.22;102671.90;3532858;83;99470;-91
2022/02/28 11:43:25;;;;;;;12.88;5.10;;;;;;;8.16;50.43;102669.30;3518785;82;99380;-92
2022/02/28 11:48:46;;;;;;;27.15;14.00;;;;;;;7.74;48.58;102671.00;3521473;81;99202;-90
2022/02/28 11:53:54;;;;;;;23.85;13.55;;;;;;;7.78;48.38;102660.48;3513085;80;98357;-90
2022/02/28 11:58:58;;;;;;;12.47;4.80;;;;;;;7.54;46.30;102670.83;3513680;82;99448;-92
2022/02/28 12:04:15;;;;;;;13.32;4.03;;;;;;;7.40;47.08;102663.13;3507491;82;99260;-94
2022/02/28 12:09:37;;;;;;;8.80;3.43;;;;;;;7.28;44.77;102666.09;3499678;82;99528;-93
2022/02/28 12:15:03;;;;;;;13.35;4.90;;;;;;;7.22;46.00;102656.34;3516637;80;99185;-92
2022/02/28 12:20:27;;;;;;;8.03;3.50;;;;;;;7.00;44.81;102665.75;3506036;82;98710;-93
2022/02/28 12:25:35;;;;;;;9.20;3.70;;;;;;;6.77;44.18;102655.16;3517563;80;98810;-91
2022/02/28 12:30:45;;;;;;;14.13;5.20;;;;;;;6.76;43.67;102660.37;3507335;80;98849;-93
2022/02/28 12:36:04;;;;;;;13.13;6.37;;;;;;;6.74;43.77;102663.98;3528531;82;33137;-92
2022/02/28 12:41:12;;;;;;;10.85;4.87;;;;;;;6.79;44.08;102665.27;3520793;82;99048;-91
2022/02/28 12:46:18;;;;;;;11.97;4.47;;;;;;;6.44;43.04;102670.45;3502023;80;98729;-88
2022/02/28 12:51:23;;;;;;;12.05;4.80;;;;;;;6.25;44.42;102669.07;3488894;82;99136;-90
2022/02/28 12:56:24;;;;;;;9.20;3.90;;;;;;;6.21;43.40;102669.97;3504791;83;99257;-89
2022/02/28 13:01:28;;;;;;;13.07;4.90;;;;;;;6.16;46.18;102670.02;3496721;83;98971;-90
2022/02/28 13:06:33;;;;;;;13.32;6.30;;;;;;;6.15;45.47;102672.48;3486794;81;98742;-89
2022/02/28 13:11:38;;;;;;;12.97;5.27;;;;;;;6.05;44.44;102672.05;3487583;83;98332;-90
2022/02/28 13:16:44;;;;;;;9.27;4.57;;;;;;;5.79;44.50;102663.86;3498288;80;98667;-92
2022/02/28 13:22:02;;;;;;;8.48;3.35;;;;;;;5.66;43.81;102667.84;3476584;82;98899;-88
2022/02/28 13:27:06;;;;;;;11.07;4.80;;;;;;;5.59;46.17;102666.02;3498932;83;98754;-90
2022/02/28 13:32:16;;;;;;;10.98;4.33;;;;;;;5.52;44.96;102656.78;3486546;81;99233;-89
2022/02/28 13:37:29;;;;;;;17.77;7.13;;;;;;;5.52;45.13;102677.27;3487642;83;98658;-89
2022/02/28 13:42:31;;;;;;;11.50;4.80;;;;;;;5.46;46.69;102668.08;3468240;83;99090;-92
2022/02/28 13:47:37;;;;;;;14.00;6.07;;;;;;;5.48;46.85;102667.22;3514684;81;27598;-90
2022/02/28 13:52:39;;;;;;;15.72;5.45;;;;;;;5.39;46.60;102671.13;3525512;81;98849;-91
2022/02/28 13:57:44;;;;;;;13.10;5.70;;;;;;;5.18;47.71;102668.89;3527884;82;98785;-89
2022/02/28 14:03:11;;;;;;;12.00;4.77;;;;;;;5.17;48.00;102663.97;3523861;82;99365;-92
2022/02/28 14:08:16;;;;;;;17.40;5.58;;;;;;;5.22;48.03;102663.93;3524831;82;97874;-90
2022/02/28 14:13:22;;;;;;;9.97;4.40;;;;;;;5.04;47.65;102657.00;3517048;82;99057;-91
2022/02/28 14:18:23;;;;;;;11.65;4.85;;;;;;;4.90;46.27;102659.56;3534809;82;32819;-89
2022/02/28 14:23:24;;;;;;;10.60;4.40;;;;;;;4.83;46.36;102658.25;3519043;82;98948;-92
2022/02/28 14:28:25;;;;;;;12.47;4.43;;;;;;;4.88;47.18;102663.67;3523238;82;98886;-87
2022/02/28 14:33:25;;;;;;;12.37;4.67;;;;;;;4.82;47.12;102667.00;3516872;82;98637;-88
2022/02/28 14:38:29;;;;;;;10.77;4.30;;;;;;;4.74;46.50;102668.16;3501992;82;99252;-88
2022/02/28 14:43:29;;;;;;;9.90;4.40;;;;;;;4.64;46.62;102658.68;3518596;82;98620;-89
2022/02/28 14:48:31;;;;;;;11.20;4.43;;;;;;;4.48;47.82;102658.52;3541109;82;98522;-88
2022/02/28 14:53:32;;;;;;;14.17;5.53;;;;;;;4.43;48.47;102671.61;3537933;82;98277;-89
2022/02/28 14:58:34;;;;;;;10.23;4.27;;;;;;;4.38;48.07;102678.48;3545804;81;98556;-87
2022/02/28 15:03:35;;;;;;;13.13;4.67;;;;;;;4.20;45.91;102675.58;3541762;80;98706;-91
2022/02/28 15:08:36;;;;;;;13.30;4.37;;;;;;;4.05;47.35;102674.28;3552505;80;99081;-89
2022/02/28 15:13:37;;;;;;;10.07;3.70;;;;;;;4.00;47.71;102677.02;3555248;82;98642;-89
2022/02/28 15:18:38;;;;;;;11.33;3.70;;;;;;;3.88;45.96;102669.72;3560007;81;98277;-88
2022/02/28 15:23:39;;;;;;;9.78;3.72;;;;;;;3.81;47.89;102674.09;3540947;80;98278;-88
2022/02/28 15:28:40;;;;;;;9.27;4.00;;;;;;;3.72;45.90;102667.57;3552538;82;98350;-88
2022/02/28 15:33:41;;;;;;;12.33;4.57;;;;;;;3.58;46.33;102672.52;3534056;80;98879;-90
2022/02/28 15:38:42;;;;;;;10.47;3.50;;;;;;;3.53;48.02;102682.88;3562824;82;99066;-90
2022/02/28 15:43:43;;;;;;;12.97;4.50;;;;;;;3.44;48.00;102674.99;3544491;80;98747;-89
2022/02/28 15:48:44;;;;;;;12.37;4.43;;;;;;;3.35;47.93;102672.58;3525723;82;98962;-89
2022/02/28 15:53:45;;;;;;;12.43;4.87;;;;;;;3.26;48.37;102675.57;3520669;83;98656;-87
2022/02/28 15:58:46;;;;;;;18.33;6.63;;;;;;;3.18;48.98;102678.83;3533958;81;98840;-88
2022/02/28 16:03:47;;;;;;;17.87;6.50;;;;;;;3.13;49.98;102682.94;3518161;81;98571;-88
2022/02/28 16:08:48;;;;;;;15.13;6.07;;;;;;;3.07;50.25;102675.05;3520502;83;99219;-88
2022/02/28 16:13:49;;;;;;;13.90;5.20;;;;;;;3.00;50.63;102678.03;3520667;81;98660;-90
2022/02/28 16:18:50;;;;;;;18.53;8.27;;;;;;;2.95;52.02;102679.38;3511900;81;98690;-90
2022/02/28 16:23:51;;;;;;;32.07;14.17;;;;;;;2.84;51.52;102676.95;3517522;82;98460;-91
2022/02/28 16:28:52;;;;;;;29.23;10.93;;;;;;;2.75;52.62;102679.92;3512231;83;98719;-90
2022/02/28 16:33:53;;;;;;;25.67;10.47;;;;;;;2.69;53.89;102681.00;3507241;82;98730;-89
2022/02/28 16:38:54;;;;;;;22.42;9.58;;;;;;;2.60;53.73;102678.00;3509934;82;98891;-90
2022/02/28 16:43:55;;;;;;;22.65;9.65;;;;;;;2.49;54.32;102679.07;3512879;81;98644;-89
2022/02/28 16:48:56;;;;;;;26.97;12.37;;;;;;;2.39;54.98;102678.21;3508170;82;98774;-89
2022/02/28 16:53:57;;;;;;;36.65;14.75;;;;;;;2.33;55.64;102680.64;3515424;81;98922;-89
2022/02/28 16:58:58;;;;;;;48.20;19.00;;;;;;;2.18;55.62;102681.98;3512742;82;98620;-89
2022/02/28 17:04:01;;;;;;;74.33;30.17;;;;;;;2.00;56.77;102690.58;3512806;80;98726;-88
2022/02/28 17:09:02;;;;;;;41.48;15.85;;;;;;;1.81;57.47;102683.43;3516268;82;98848;-88
2022/02/28 17:14:03;;;;;;;33.97;13.40;;;;;;;1.57;57.90;102680.86;3508540;82;98883;-87
2022/02/28 17:19:04;;;;;;;27.30;11.87;;;;;;;1.41;58.75;102687.27;3508331;82;98800;-87
2022/02/28 17:24:07;;;;;;;30.83;12.83;;;;;;;1.32;59.54;102683.41;3507164;82;98379;-87
2022/02/28 17:29:08;;;;;;;31.30;14.23;;;;;;;1.23;60.32;102686.88;3513142;83;99119;-84
2022/02/28 17:34:10;;;;;;;38.53;16.70;;;;;;;1.12;61.29;102683.80;3500964;83;98829;-84
2022/02/28 17:39:11;;;;;;;36.23;14.60;;;;;;;1.00;62.15;102683.97;3510146;82;98873;-84
2022/02/28 17:44:13;;;;;;;29.17;11.43;;;;;;;0.87;62.53;102680.87;3505321;80;98878;-84
2022/02/28 17:49:15;;;;;;;31.30;13.98;;;;;;;0.74;62.91;102685.38;3506576;83;98813;-83
2022/02/28 17:54:16;;;;;;;30.87;13.33;;;;;;;0.60;63.37;102682.26;3504921;82;98410;-83
2022/02/28 17:59:17;;;;;;;29.67;12.27;;;;;;;0.48;64.09;102684.31;3509601;82;98655;-84
2022/02/28 18:04:18;;;;;;;32.33;14.00;;;;;;;0.34;64.77;102683.62;3511613;82;98710;-84
2022/02/28 18:09:19;;;;;;;37.40;15.17;;;;;;;0.21;65.04;102691.59;3508264;83;98888;-83
2022/02/28 18:14:20;;;;;;;38.37;14.20;;;;;;;0.09;65.89;102689.56;3505527;83;100200;-83
2022/02/28 18:19:21;;;;;;;43.63;16.80;;;;;;;-0.03;65.86;102694.81;3514961;82;99177;-84
2022/02/28 18:24:23;;;;;;;61.43;23.97;;;;;;;-0.14;66.40;102698.47;3505581;82;98887;-83
2022/02/28 18:29:24;;;;;;;75.00;28.87;;;;;;;-0.44;67.12;102684.51;3507572;83;99001;-83
2022/02/28 18:34:25;;;;;;;92.00;34.37;;;;;;;-0.44;67.12;102684.51;3507544;82;98963;-83
2022/02/28 18:39:26;;;;;;;85.50;35.00;;;;;;;-0.45;67.52;102714.54;3505216;83;99026;-83
2022/02/28 18:44:28;;;;;;;86.13;32.13;;;;;;;-0.56;68.37;102717.61;3507414;83;98978;-83
2022/02/28 18:49:29;;;;;;;86.43;35.97;;;;;;;-0.62;69.02;102713.74;3510917;82;99085;-83
2022/02/28 18:54:30;;;;;;;90.23;34.73;;;;;;;-0.72;68.22;102711.68;3504065;83;99093;-84
2022/02/28 18:59:32;;;;;;;91.13;39.23;;;;;;;-0.81;68.93;102719.94;3517313;82;33755;-83
2022/02/28 19:04:34;;;;;;;79.30;36.77;;;;;;;-0.85;70.20;102716.59;3511205;82;99056;-84
2022/02/28 19:09:35;;;;;;;88.67;36.40;;;;;;;-0.95;69.87;102713.72;3513144;82;99343;-84
2022/02/28 19:14:38;;;;;;;77.82;34.65;;;;;;;-1.00;70.49;102719.08;3508480;83;99556;-84
2022/02/28 19:19:42;;;;;;;81.90;30.43;;;;;;;-1.18;70.70;102721.98;3510892;82;99508;-84
2022/02/28 19:24:46;;;;;;;67.37;29.87;;;;;;;-1.18;70.70;102721.98;3512804;81;99559;-85
2022/02/28 19:29:47;;;;;;;56.80;24.73;;;;;;;-1.22;70.86;102727.05;3510986;80;101004;-86
2022/02/28 19:34:48;;;;;;;61.57;27.20;;;;;;;-1.32;71.74;102718.77;3506162;83;99209;-87
2022/02/28 19:39:50;;;;;;;66.20;28.57;;;;;;;-1.33;72.33;102726.58;3511691;81;104812;-87
2022/02/28 19:44:51;;;;;;;60.73;27.33;;;;;;;-1.36;72.59;102723.55;3514493;82;99697;-87
2022/02/28 19:49:52;;;;;;;68.63;28.13;;;;;;;-1.47;72.38;102723.91;3512657;81;100988;-87
2022/02/28 19:54:53;;;;;;;61.33;29.73;;;;;;;-1.49;72.96;102726.02;3569777;81;99653;-88
2022/02/28 19:59:53;;;;;;;78.73;36.83;;;;;;;-1.58;73.01;102728.00;3565822;80;99567;-88
2022/02/28 20:04:54;;;;;;;63.13;27.83;;;;;;;-1.59;73.86;102730.41;3539600;80;99647;-88
2022/02/28 20:09:56;;;;;;;60.70;28.40;;;;;;;-1.67;73.78;102725.37;3571959;80;99446;-88
2022/02/28 20:14:57;;;;;;;66.03;28.20;;;;;;;-1.66;74.10;102734.59;3587052;80;99179;-89
2022/02/28 20:19:58;;;;;;;64.53;29.82;;;;;;;-1.75;73.72;102727.92;3547473;80;99717;-89
2022/02/28 20:24:58;;;;;;;64.60;29.43;;;;;;;-1.81;74.01;102722.69;3565003;80;99479;-91
2022/02/28 20:29:59;;;;;;;69.25;29.75;;;;;;;-1.87;74.55;102727.69;3559649;81;123278;-90
2022/02/28 20:35:00;;;;;;;68.50;29.47;;;;;;;-1.91;74.94;102730.02;3575075;80;99481;-91
2022/02/28 20:40:03;;;;;;;76.10;32.10;;;;;;;-1.94;75.01;102728.33;3574806;81;99351;-92
2022/02/28 20:45:06;;;;;;;70.20;30.27;;;;;;;-2.05;75.65;102718.39;3573976;81;99470;-90
2022/02/28 20:50:08;;;;;;;68.63;30.07;;;;;;;-2.05;75.54;102733.23;3539972;81;99560;-89
2022/02/28 20:55:09;;;;;;;66.60;28.80;;;;;;;-2.13;75.80;102729.02;3553892;80;99617;-90
2022/02/28 21:00:16;;;;;;;72.13;33.00;;;;;;;-2.17;75.93;102726.52;3550942;81;99193;-89
2022/02/28 21:05:14;;;;;;;107.97;39.87;;;;;;;-2.19;76.33;102737.25;3550444;80;99199;-89
2022/02/28 21:10:15;;;;;;;93.47;37.20;;;;;;;-2.27;76.58;102734.38;3556999;81;99397;-90
2022/02/28 21:15:16;;;;;;;90.97;37.53;;;;;;;-2.32;76.84;102730.22;3570777;80;99261;-88
2022/02/28 21:20:17;;;;;;;108.47;40.40;;;;;;;-2.31;77.02;102732.38;3552215;81;99634;-89
2022/02/28 21:25:18;;;;;;;105.73;36.90;;;;;;;-2.38;77.16;102731.17;3545594;80;100053;-88
2022/02/28 21:30:19;;;;;;;105.17;43.42;;;;;;;-2.40;77.79;102739.20;3539561;81;99589;-88
2022/02/28 21:35:20;;;;;;;108.37;42.40;;;;;;;-2.42;77.76;102746.17;3547693;82;99036;-88
2022/02/28 21:40:22;;;;;;;85.50;34.50;;;;;;;-2.47;77.87;102750.09;3545828;80;99524;-88
2022/02/28 21:45:23;;;;;;;84.47;35.70;;;;;;;-2.49;78.89;102738.73;3563486;80;99225;-88
2022/02/28 21:50:24;;;;;;;135.33;48.73;;;;;;;-2.52;78.42;102745.93;3543288;81;99256;-89
2022/02/28 21:55:26;;;;;;;86.80;36.10;;;;;;;-2.61;78.26;102752.75;3506226;82;99375;-89
2022/02/28 22:00:28;;;;;;;69.17;30.33;;;;;;;-2.64;78.62;102742.93;3494625;82;99187;-91
2022/02/28 22:05:29;;;;;;;67.20;29.80;;;;;;;-2.65;79.11;102752.91;3503036;83;98891;-90
2022/02/28 22:10:30;;;;;;;69.57;28.37;;;;;;;-2.65;79.42;102739.44;3492556;80;99737;-90
2022/02/28 22:15:31;;;;;;;82.05;35.05;;;;;;;-2.66;79.71;102745.89;3503408;82;99283;-90
2022/02/28 22:20:32;;;;;;;74.47;32.23;;;;;;;-2.68;79.50;102743.93;3500312;83;99215;-88
2022/02/28 22:25:34;;;;;;;69.77;27.73;;;;;;;-2.69;79.69;102744.99;3501664;83;99473;-89
2022/02/28 22:30:35;;;;;;;70.77;29.23;;;;;;;-2.70;80.05;102734.44;3487424;82;99675;-89
2022/02/28 22:35:36;;;;;;;77.17;29.07;;;;;;;-2.71;79.81;102737.67;3505584;83;26484;-89
2022/02/28 22:40:37;;;;;;;72.50;29.13;;;;;;;-2.73;79.72;102735.72;3513422;82;99414;-90
2022/02/28 22:45:38;;;;;;;75.87;30.13;;;;;;;-2.74;79.43;102735.98;3519688;82;99925;-90
2022/02/28 22:50:40;;;;;;;60.35;26.75;;;;;;;-2.74;79.72;102734.63;3536626;81;99655;-90
2022/02/28 22:55:41;;;;;;;68.27;26.60;;;;;;;-2.73;79.62;102734.38;3574259;80;99156;-90
2022/02/28 23:00:50;;;;;;;62.00;25.60;;;;;;;-2.72;79.67;102729.81;3555941;81;99384;-90
2022/02/28 23:05:51;;;;;;;64.20;26.33;;;;;;;-2.73;79.67;102722.79;3566073;80;30427;-90
2022/02/28 23:21:31;;;;;;;63.13;26.05;;;;;;;-2.73;80.18;102714.70;3557386;81;99601;-91